FRIANT DAM (MILLERTON) (MIL)

Elevation: 581' · SAN JOAQUIN R basin · Operator: US Bureau of Reclamation

Provisional data, subject to change.
Query executed Saturday at 21:06:15   clock

Select a sensor type for a plot of data.
Note: Reservoir Flows are daily averages.

Earlier

Date RES ELE    STORAGE    RES CHG    TOC STO    ABV TOC    OUTFLOW    INFLOW    EVAP    FNF    RIV REL    PPT INC    SPILL   
 FEET   AF   AF   AF   AF   CFS   CFS   CFS   CFS   CFS   INCHES   CFS  
07/31/2014 519.10 276283 -788 520500 -244217 1532 1184 49 448 e 1297 0.00 0
08/01/2014 518.94 275737 -546 520500 -244763 1404 1176 47 448 e 1296 0.00 0
08/02/2014 518.49 274208 -1529 520500 -246292 1393 673 51 448 e 1295 0.00 0
08/03/2014 517.93 272307 -1901 520500 -248193 1626 706 38 216 1294 0.00 0
08/04/2014 517.33 270284 -2023 520500 -250216 1759 775 36 341 e 1292 0.00 0
08/05/2014 516.55 267665 -2619 520500 -252835 1764 487 43 341 e 1296 0.00 0
08/06/2014 515.94 265626 -2039 520500 -254874 1600 605 33 440 1301 0.00 0
08/07/2014 515.38 263767 -1859 520500 -256733 1529 633 41 432 1301 0.00 0
08/08/2014 514.83 261945 -1822 520500 -- 1402 524 41 329 1298 0.00 0
08/09/2014 514.37 260429 -1516 520500 -260071 1297 580 47 311 1297 0.00 0
08/10/2014 513.71 258262 -2167 520500 -262238 1611 553 35 357 1294 0.00 0
08/11/2014 513.00 255941 -2321 520500 -264559 1768 632 34 337 1298 0.00 0
08/12/2014 512.28 253605 -2336 520500 -266895 1678 538 38 374 1298 0.00 0
08/13/2014 511.68 251667 -1938 520500 -268833 1551 612 38 251 1296 0.00 0
08/14/2014 511.24 250251 -1416 520500 -270249 1427 762 49 340 1297 0.00 0
08/15/2014 510.76 248712 -1539 520500 -271788 1450 711 37 158 1301 0.00 0
08/16/2014 510.29 247211 -1501 520500 -273289 1526 808 39 292 1299 0.00 0
08/17/2014 509.73 245427 -1784 520500 -275073 1512 654 41 158 e 1297 0.00 0
08/18/2014 509.37 244283 -1144 520500 -276217 1396 852 33 158 e 1296 0.00 0
08/19/2014 509.19 243712 -571 520500 -276788 1295 1042 35 159 1295 0.00 0
08/20/2014 508.77 242383 -1329 520500 -278117 1456 815 29 225 1299 0.00 0
08/21/2014 508.40 241217 -1166 520500 -279283 1683 1130 35 185 1301 0.00 0
08/22/2014 507.90 239643 -1574 520500 -280857 1657 898 35 145 e 1299 0.00 0
08/23/2014 507.55 238549 -1094 520500 -281951 1506 985 31 175 e 1297 0.00 0
08/24/2014 507.30 237768 -781 520500 -282732 1383 1037 48 174 e 1296 0.00 0
08/25/2014 507.03 236924 -844 520500 -283576 1295 896 27 145 e 1295 0.00 0
08/26/2014 506.82 236272 -652 520500 -284228 1300 1000 29 102 e 1300 0.00 0
08/27/2014 506.33 234752 -1520 520500 -285748 1422 704 48 102 e 1301 0.00 0
08/28/2014 505.83 233206 -1546 520500 -287294 1505 761 35 24 1300 0.00 0
08/29/2014 505.43 231975 -1231 520500 -288525 1502 913 32 215 1298 0.00 0
08/30/2014 -- -- -- -- -- -- -- -- -- -- -- --

Later | Latest

Warning! This data is preliminary and subject to revision.

Download Data Now Download Data Now | Show MIL Map | Plot MIL Data | 1 Month MIL Data | Real-Time MIL Data | MIL Info